createdAt,value
2022-09-28T00:00:12.875Z,15.21
2022-09-28T00:01:44.855Z,15.17
2022-09-28T00:03:16.530Z,15.14
2022-09-28T00:04:48.275Z,15.09
2022-09-28T00:06:21.998Z,15.09
2022-09-28T00:07:54.241Z,15.12
2022-09-28T00:09:26.323Z,15.12
2022-09-28T00:10:57.986Z,15.17
2022-09-28T00:12:35.196Z,15.18
2022-09-28T00:14:07.892Z,15.19
2022-09-28T00:15:42.130Z,15.20
2022-09-28T00:17:14.149Z,15.23
2022-09-28T00:18:45.884Z,15.31
2022-09-28T00:20:18.173Z,15.37
2022-09-28T00:21:52.517Z,15.37
2022-09-28T00:23:24.049Z,15.35
2022-09-28T00:24:55.590Z,15.31
2022-09-28T00:26:27.611Z,15.27
2022-09-28T00:27:59.257Z,15.28
2022-09-28T00:29:31.866Z,15.26
2022-09-28T00:31:03.502Z,15.32
2022-09-28T00:32:35.383Z,15.39
2022-09-28T00:34:07.344Z,15.45
2022-09-28T00:35:39.342Z,15.48
2022-09-28T00:37:11.104Z,15.49
2022-09-28T00:38:43.022Z,15.50
2022-09-28T00:40:14.715Z,15.50
2022-09-28T00:41:47.155Z,15.52
2022-09-28T00:43:22.349Z,15.52
2022-09-28T00:44:54.536Z,15.51
2022-09-28T00:46:31.774Z,15.55
2022-09-28T00:48:03.819Z,15.58
2022-09-28T00:49:42.019Z,15.63
2022-09-28T00:51:14.077Z,15.63
2022-09-28T00:52:49.099Z,15.58
2022-09-28T00:54:20.564Z,15.57
2022-09-28T00:55:52.947Z,15.52
2022-09-28T00:57:24.627Z,15.49
2022-09-28T00:58:56.541Z,15.45
2022-09-28T01:00:28.115Z,15.40
2022-09-28T01:02:00.026Z,15.35
2022-09-28T01:03:32.017Z,15.30
2022-09-28T01:05:03.723Z,15.26
2022-09-28T01:06:36.637Z,15.23
2022-09-28T01:08:08.732Z,15.18
2022-09-28T01:09:40.795Z,15.13
2022-09-28T01:11:13.062Z,15.07
2022-09-28T01:12:44.611Z,15.04
2022-09-28T01:14:16.735Z,15.01
2022-09-28T01:15:50.247Z,14.98
2022-09-28T01:17:28.615Z,14.99
2022-09-28T01:19:05.874Z,15.00
2022-09-28T01:20:43.601Z,15.01
2022-09-28T01:22:33.766Z,15.03
2022-09-28T01:24:14.058Z,15.05
2022-09-28T01:25:48.525Z,15.07
2022-09-28T01:27:20.320Z,15.12
2022-09-28T01:29:01.031Z,15.15
2022-09-28T01:30:34.850Z,15.21
2022-09-28T01:32:14.796Z,15.25
2022-09-28T01:33:47.665Z,15.29
2022-09-28T01:35:25.446Z,15.31
2022-09-28T01:36:57.034Z,15.33
2022-09-28T01:38:59.031Z,15.39
2022-09-28T01:40:30.563Z,15.42
2022-09-28T01:42:06.436Z,15.41
2022-09-28T01:43:39.470Z,15.45
2022-09-28T01:45:19.106Z,15.45
2022-09-28T01:46:54.103Z,15.47
2022-09-28T01:48:46.918Z,15.47
2022-09-28T01:50:19.482Z,15.52
2022-09-28T01:51:52.748Z,15.55
2022-09-28T01:53:35.165Z,15.49
2022-09-28T01:55:06.920Z,15.45
2022-09-28T01:56:39.519Z,15.45
2022-09-28T01:58:14.085Z,15.46
2022-09-28T01:59:47.980Z,15.45
2022-09-28T02:01:22.797Z,15.39
2022-09-28T02:03:13.454Z,15.35
2022-09-28T02:04:45.577Z,15.30
2022-09-28T02:06:19.220Z,15.29
2022-09-28T02:07:54.925Z,15.24
2022-09-28T02:09:33.566Z,15.25
2022-09-28T02:11:05.763Z,15.25
2022-09-28T02:13:00.532Z,15.25
2022-09-28T02:14:32.147Z,15.23
2022-09-28T02:16:05.903Z,15.20
2022-09-28T02:17:37.617Z,15.17
2022-09-28T02:19:13.458Z,15.16
2022-09-28T02:20:47.799Z,15.17
2022-09-28T02:22:26.111Z,15.08
2022-09-28T02:23:58.404Z,15.03
2022-09-28T02:25:48.639Z,14.99
2022-09-28T02:27:40.738Z,14.96
2022-09-28T02:29:13.108Z,14.99
2022-09-28T02:30:44.681Z,14.95
2022-09-28T02:32:17.066Z,14.90
2022-09-28T02:33:48.686Z,14.85
2022-09-28T02:35:20.654Z,14.81
2022-09-28T02:36:55.356Z,14.80
2022-09-28T02:38:27.551Z,14.83
2022-09-28T02:39:59.155Z,14.85
2022-09-28T02:41:42.212Z,14.89
2022-09-28T02:43:23.983Z,14.94
2022-09-28T02:45:16.290Z,14.95
2022-09-28T02:46:51.262Z,14.95
2022-09-28T02:48:44.080Z,14.95
2022-09-28T02:50:35.931Z,15.03
2022-09-28T02:52:13.896Z,15.05
2022-09-28T02:53:49.310Z,15.04
2022-09-28T02:55:26.771Z,15.04
2022-09-28T02:57:12.758Z,15.03
2022-09-28T02:58:44.405Z,14.96
2022-09-28T03:00:19.100Z,14.92
2022-09-28T03:02:11.058Z,14.87
2022-09-28T03:03:42.834Z,14.77
2022-09-28T03:05:16.063Z,14.64
2022-09-28T03:06:48.849Z,14.60
2022-09-28T03:08:37.785Z,14.55
2022-09-28T03:10:31.079Z,14.47
2022-09-28T03:12:12.458Z,14.42
2022-09-28T03:13:43.952Z,14.43
2022-09-28T03:15:25.642Z,14.44
2022-09-28T03:16:57.356Z,14.43
2022-09-28T03:18:29.528Z,14.43
2022-09-28T03:20:01.144Z,14.45
2022-09-28T03:21:32.644Z,14.46
2022-09-28T03:23:23.906Z,14.48
2022-09-28T03:24:56.148Z,14.49
2022-09-28T03:26:27.828Z,14.51
2022-09-28T03:27:59.759Z,14.52
2022-09-28T03:29:33.323Z,14.54
2022-09-28T03:31:05.186Z,14.60
2022-09-28T03:32:37.259Z,14.68
2022-09-28T03:34:09.034Z,14.75
2022-09-28T03:35:41.109Z,14.78
2022-09-28T03:37:12.731Z,14.82
2022-09-28T03:38:44.462Z,14.80
2022-09-28T03:40:16.024Z,14.81
2022-09-28T03:41:47.895Z,14.81
2022-09-28T03:43:19.416Z,14.80
2022-09-28T03:44:51.081Z,14.78
2022-09-28T03:46:22.806Z,14.77
2022-09-28T03:47:54.445Z,14.77
2022-09-28T03:49:25.976Z,14.80
2022-09-28T03:50:58.011Z,14.78
2022-09-28T03:52:29.614Z,14.75
2022-09-28T03:54:01.414Z,14.75
2022-09-28T03:55:32.979Z,14.76
2022-09-28T03:57:04.625Z,14.77
2022-09-28T03:58:36.371Z,14.76
2022-09-28T04:00:08.407Z,14.75
2022-09-28T04:01:40.174Z,14.74
2022-09-28T04:03:11.762Z,14.72
2022-09-28T04:04:43.584Z,14.74
2022-09-28T04:06:15.162Z,14.71
2022-09-28T04:07:46.924Z,14.71
2022-09-28T04:09:18.874Z,14.74
2022-09-28T04:10:50.542Z,14.76
2022-09-28T04:12:22.142Z,14.75
2022-09-28T04:13:53.708Z,14.71
2022-09-28T04:15:25.314Z,14.69
2022-09-28T04:16:57.134Z,14.66
2022-09-28T04:18:28.911Z,14.57
2022-09-28T04:20:00.405Z,14.56
2022-09-28T04:21:31.964Z,14.54
2022-09-28T04:23:03.803Z,14.60
2022-09-28T04:24:35.470Z,14.59
2022-09-28T04:26:08.043Z,14.61
2022-09-28T04:27:58.998Z,14.62
2022-09-28T04:29:31.409Z,14.57
2022-09-28T04:31:03.498Z,14.53
2022-09-28T04:32:35.225Z,14.49
2022-09-28T04:34:07.031Z,14.43
2022-09-28T04:35:38.712Z,14.35
2022-09-28T04:37:10.557Z,14.34
2022-09-28T04:38:52.874Z,14.32
2022-09-28T04:40:25.228Z,14.33
2022-09-28T04:41:56.785Z,14.35
2022-09-28T04:43:28.916Z,14.39
2022-09-28T04:45:01.156Z,14.45
2022-09-28T04:46:32.719Z,14.53
2022-09-28T04:48:06.305Z,14.60
2022-09-28T04:49:38.579Z,14.62
2022-09-28T04:51:10.183Z,14.68
2022-09-28T04:52:41.689Z,14.78
2022-09-28T04:54:13.222Z,14.85
2022-09-28T04:55:45.232Z,14.98
2022-09-28T04:57:16.857Z,15.10
2022-09-28T04:58:52.623Z,15.21
2022-09-28T05:00:24.552Z,15.28
2022-09-28T05:01:56.145Z,15.31
2022-09-28T05:03:27.689Z,15.32
2022-09-28T05:04:59.344Z,15.32
2022-09-28T05:06:30.947Z,15.25
2022-09-28T05:08:02.572Z,15.22
2022-09-28T05:09:38.241Z,15.18
2022-09-28T05:11:13.651Z,15.15
2022-09-28T05:12:46.153Z,15.13
2022-09-28T05:14:17.725Z,15.12
2022-09-28T05:15:54.869Z,15.09
2022-09-28T05:17:29.105Z,15.08
2022-09-28T05:19:00.743Z,15.10
2022-09-28T05:20:32.412Z,15.16
2022-09-28T05:22:04.930Z,15.27
2022-09-28T05:23:37.380Z,15.43
2022-09-28T05:25:09.624Z,15.55
2022-09-28T05:26:41.276Z,15.72
2022-09-28T05:28:13.816Z,15.88
2022-09-28T05:29:46.121Z,16.04
2022-09-28T05:31:17.735Z,16.15
2022-09-28T05:32:52.029Z,16.26
2022-09-28T05:34:24.830Z,16.36
2022-09-28T05:36:00.918Z,16.48
2022-09-28T05:37:33.026Z,16.58
2022-09-28T05:39:04.956Z,16.59
2022-09-28T05:40:36.489Z,16.63
2022-09-28T05:42:08.248Z,16.73
2022-09-28T05:43:39.914Z,16.86
2022-09-28T05:45:11.540Z,16.89
2022-09-28T05:46:43.307Z,16.82
2022-09-28T05:48:14.840Z,16.86
2022-09-28T05:49:46.386Z,16.72
2022-09-28T05:51:18.083Z,16.75
2022-09-28T05:53:01.588Z,16.86
2022-09-28T05:54:33.111Z,17.00
2022-09-28T05:56:04.698Z,17.12
2022-09-28T05:57:36.272Z,17.31
2022-09-28T05:59:07.946Z,17.43
2022-09-28T06:00:39.555Z,17.53
2022-09-28T06:02:11.264Z,17.67
2022-09-28T06:03:42.865Z,17.79
2022-09-28T06:05:14.499Z,17.94
2022-09-28T06:06:46.031Z,18.06
2022-09-28T06:08:17.594Z,18.16
2022-09-28T06:09:50.496Z,18.26
2022-09-28T06:11:22.135Z,18.34
2022-09-28T06:12:57.218Z,18.49
2022-09-28T06:14:28.839Z,18.67
2022-09-28T06:16:01.241Z,18.81
2022-09-28T06:17:32.753Z,18.97
2022-09-28T06:19:04.339Z,19.15
2022-09-28T06:20:36.793Z,19.30
2022-09-28T06:22:08.973Z,19.44
2022-09-28T06:23:42.716Z,19.60
2022-09-28T06:25:16.235Z,19.74
2022-09-28T06:26:47.878Z,19.80
2022-09-28T06:28:19.461Z,19.79
2022-09-28T06:29:51.029Z,19.90
2022-09-28T06:31:24.597Z,19.91
2022-09-28T06:32:56.566Z,19.97
2022-09-28T06:34:30.112Z,20.07
2022-09-28T06:36:01.932Z,20.06
2022-09-28T06:37:33.493Z,20.06
2022-09-28T06:39:05.044Z,20.11
2022-09-28T06:40:37.381Z,20.17
2022-09-28T06:42:09.024Z,20.26
2022-09-28T06:43:40.631Z,20.31
2022-09-28T06:45:12.541Z,20.28
2022-09-28T06:46:44.464Z,20.32
2022-09-28T06:48:17.672Z,20.42
2022-09-28T06:49:51.535Z,20.53
2022-09-28T06:51:23.211Z,20.59
2022-09-28T06:52:57.697Z,20.66
2022-09-28T06:54:31.595Z,20.70
2022-09-28T06:56:03.294Z,20.70
2022-09-28T06:57:38.935Z,20.66
2022-09-28T06:59:11.098Z,20.69
2022-09-28T07:00:44.163Z,20.66
2022-09-28T07:02:18.400Z,20.62
2022-09-28T07:03:54.842Z,20.56
2022-09-28T07:05:27.833Z,20.42
2022-09-28T07:07:02.725Z,20.34
2022-09-28T07:08:34.280Z,20.30
2022-09-28T07:10:06.548Z,20.26
2022-09-28T07:11:39.995Z,20.25
2022-09-28T07:13:29.834Z,20.28
2022-09-28T07:15:03.955Z,20.42
2022-09-28T07:17:03.691Z,20.59
2022-09-28T07:18:30.119Z,20.79
2022-09-28T07:20:11.942Z,20.77
2022-09-28T07:21:58.900Z,20.80
2022-09-28T07:23:37.607Z,20.74
2022-09-28T07:25:14.426Z,20.82
2022-09-28T07:26:46.060Z,20.92
2022-09-28T07:28:17.849Z,21.05
2022-09-28T07:29:50.014Z,21.20
2022-09-28T07:31:21.600Z,21.13
2022-09-28T07:32:56.239Z,21.07
2022-09-28T07:34:27.911Z,21.03
2022-09-28T07:36:00.946Z,21.09
2022-09-28T07:37:32.693Z,21.08
2022-09-28T07:39:04.247Z,21.10
2022-09-28T07:40:54.576Z,21.07
2022-09-28T07:42:29.854Z,21.00
2022-09-28T07:44:06.395Z,20.89
2022-09-28T07:45:38.610Z,20.75
2022-09-28T07:47:10.205Z,20.60
2022-09-28T07:48:42.394Z,20.53
2022-09-28T07:50:14.019Z,20.39
2022-09-28T07:51:45.627Z,20.27
2022-09-28T07:53:17.773Z,20.27
2022-09-28T07:54:52.361Z,20.30
2022-09-28T07:56:24.250Z,20.40
2022-09-28T07:57:56.513Z,20.44
2022-09-28T07:59:28.147Z,20.43
2022-09-28T08:01:02.588Z,20.41
2022-09-28T08:02:35.561Z,20.40
2022-09-28T08:04:07.218Z,20.37
2022-09-28T08:05:39.233Z,20.30
2022-09-28T08:07:11.481Z,20.31
2022-09-28T08:08:44.900Z,20.35
2022-09-28T08:10:17.597Z,20.30
2022-09-28T08:11:50.132Z,20.31
2022-09-28T08:13:23.543Z,20.34
2022-09-28T08:15:00.263Z,20.40
2022-09-28T08:16:32.682Z,20.39
2022-09-28T08:18:04.671Z,20.47
2022-09-28T08:19:55.122Z,20.55
2022-09-28T08:21:45.298Z,20.54
2022-09-28T08:23:17.242Z,20.61
2022-09-28T08:24:49.422Z,20.65
2022-09-28T08:26:21.134Z,20.65
2022-09-28T08:27:52.666Z,20.72
2022-09-28T08:29:24.217Z,20.82
2022-09-28T08:30:55.854Z,20.95
2022-09-28T08:32:27.615Z,20.87
2022-09-28T08:33:59.311Z,20.78
2022-09-28T08:35:31.679Z,20.76
2022-09-28T08:37:03.494Z,20.77
2022-09-28T08:38:35.117Z,20.83
2022-09-28T08:40:07.011Z,20.97
2022-09-28T08:42:10.800Z,21.19
2022-09-28T08:43:54.555Z,21.37
2022-09-28T08:45:26.764Z,21.39
2022-09-28T08:47:05.364Z,21.50
2022-09-28T08:49:13.515Z,21.62
2022-09-28T08:50:56.723Z,21.74
2022-09-28T08:52:29.570Z,21.93
2022-09-28T08:54:08.161Z,21.95
2022-09-28T08:55:42.873Z,21.94
2022-09-28T08:57:20.694Z,21.94
2022-09-28T08:58:53.243Z,21.94
2022-09-28T09:00:46.935Z,21.96
2022-09-28T09:02:21.247Z,22.08
2022-09-28T09:03:53.036Z,22.12
2022-09-28T09:05:27.066Z,22.24
2022-09-28T09:07:14.438Z,22.44
2022-09-28T09:08:46.463Z,22.53
2022-09-28T09:10:18.267Z,22.44
2022-09-28T09:11:57.524Z,22.40
2022-09-28T09:13:48.055Z,22.45
2022-09-28T09:15:29.054Z,22.54
2022-09-28T09:17:01.190Z,22.64
2022-09-28T09:18:36.367Z,22.79
2022-09-28T09:20:25.429Z,22.81
2022-09-28T09:22:05.432Z,22.85
2022-09-28T09:23:38.564Z,22.83
2022-09-28T09:25:20.541Z,22.96
2022-09-28T09:26:54.873Z,22.92
2022-09-28T09:28:33.958Z,22.95
2022-09-28T09:30:12.857Z,22.99
2022-09-28T09:32:07.819Z,23.09
2022-09-28T09:33:54.824Z,23.11
2022-09-28T09:35:30.705Z,23.22
2022-09-28T09:37:05.951Z,23.28
2022-09-28T09:39:01.056Z,23.29
2022-09-28T09:40:41.211Z,23.21
2022-09-28T09:42:31.876Z,23.19
2022-09-28T09:44:22.606Z,23.22
2022-09-28T09:45:54.738Z,23.32
2022-09-28T09:47:46.754Z,23.29
2022-09-28T09:49:20.760Z,23.26
2022-09-28T09:50:59.546Z,23.30
2022-09-28T09:52:37.767Z,23.42
2022-09-28T09:54:31.942Z,23.44
2022-09-28T09:56:23.463Z,23.56
2022-09-28T09:57:57.099Z,23.58
2022-09-28T09:59:32.212Z,23.52
2022-09-28T10:01:11.418Z,23.59
2022-09-28T10:02:44.312Z,23.69
2022-09-28T10:04:18.195Z,23.74
2022-09-28T10:05:56.197Z,23.88
2022-09-28T10:07:33.834Z,24.01
2022-09-28T10:09:06.706Z,24.08
2022-09-28T10:10:40.452Z,24.04
2022-09-28T10:12:15.253Z,24.06
2022-09-28T10:13:49.360Z,24.16
2022-09-28T10:15:25.428Z,24.28
2022-09-28T10:16:57.155Z,24.33
2022-09-28T10:18:28.983Z,24.43
2022-09-28T10:20:00.613Z,24.48
2022-09-28T10:21:37.743Z,24.50
2022-09-28T10:23:22.927Z,24.54
2022-09-28T10:24:57.261Z,24.71
2022-09-28T10:26:39.225Z,24.83
2022-09-28T10:28:10.997Z,24.89
2022-09-28T10:30:15.485Z,24.92
2022-09-28T10:31:51.160Z,24.91
2022-09-28T10:33:32.781Z,24.81
2022-09-28T10:35:19.832Z,24.67
2022-09-28T10:36:56.503Z,24.56
2022-09-28T10:38:28.605Z,24.65
2022-09-28T10:40:00.297Z,24.67
2022-09-28T10:41:32.375Z,24.69
2022-09-28T10:43:05.326Z,24.78
2022-09-28T10:44:57.604Z,24.78
2022-09-28T10:46:29.342Z,24.99
2022-09-28T10:48:01.865Z,25.10
2022-09-28T10:49:46.546Z,25.23
2022-09-28T10:51:19.042Z,25.30
2022-09-28T10:52:52.387Z,25.39
2022-09-28T10:54:25.675Z,25.48
2022-09-28T10:55:59.351Z,25.59
2022-09-28T10:57:34.723Z,25.57
2022-09-28T10:59:24.910Z,25.45
2022-09-28T11:01:03.759Z,25.33
2022-09-28T11:02:36.329Z,25.28
2022-09-28T11:04:17.126Z,25.09
2022-09-28T11:05:58.089Z,24.95
2022-09-28T11:07:33.740Z,24.83
2022-09-28T11:09:20.245Z,24.78
2022-09-28T11:11:01.764Z,24.60
2022-09-28T11:12:36.322Z,24.41
2022-09-28T11:14:17.293Z,24.32
2022-09-28T11:15:50.376Z,24.24
2022-09-28T11:17:26.460Z,24.19
2022-09-28T11:18:58.851Z,24.10
2022-09-28T11:20:31.896Z,24.07
2022-09-28T11:22:03.596Z,24.08
2022-09-28T11:23:35.299Z,24.06
2022-09-28T11:25:14.363Z,23.97
2022-09-28T11:26:46.687Z,23.98
2022-09-28T11:28:25.233Z,24.07
2022-09-28T11:29:59.976Z,24.12
2022-09-28T11:31:31.565Z,24.05
2022-09-28T11:33:12.720Z,24.02
2022-09-28T11:34:58.517Z,24.00
2022-09-28T11:36:43.403Z,24.04
2022-09-28T11:38:17.667Z,24.16
2022-09-28T11:39:49.302Z,24.21
2022-09-28T11:41:24.217Z,24.32
2022-09-28T11:43:01.948Z,24.45
2022-09-28T11:44:37.536Z,24.51
2022-09-28T11:46:14.842Z,24.52
2022-09-28T11:47:49.630Z,24.43
2022-09-28T11:49:27.417Z,24.35
2022-09-28T11:51:00.339Z,24.35
2022-09-28T11:52:37.275Z,24.38
2022-09-28T11:54:20.223Z,24.45
2022-09-28T11:55:57.228Z,24.46
2022-09-28T11:57:29.937Z,24.44
2022-09-28T11:59:11.369Z,24.47
2022-09-28T12:00:46.758Z,24.40
2022-09-28T12:02:23.607Z,24.36
2022-09-28T12:03:56.621Z,24.24
2022-09-28T12:05:29.214Z,24.15
2022-09-28T12:07:04.500Z,24.08
2022-09-28T12:08:37.562Z,24.03
2022-09-28T12:10:17.510Z,23.94
2022-09-28T12:11:50.149Z,23.85
2022-09-28T12:13:31.349Z,23.83
2022-09-28T12:15:26.314Z,23.80
2022-09-28T12:17:20.276Z,23.76
2022-09-28T12:18:58.007Z,23.76
2022-09-28T12:20:31.354Z,23.74
2022-09-28T12:22:10.519Z,23.78
2022-09-28T12:23:42.199Z,23.74
2022-09-28T12:25:14.768Z,23.78
2022-09-28T12:26:48.489Z,23.79
2022-09-28T12:28:19.984Z,23.81
2022-09-28T12:30:01.063Z,23.80
2022-09-28T12:31:38.728Z,23.79
2022-09-28T12:33:15.257Z,23.73
2022-09-28T12:34:46.856Z,23.66
2022-09-28T12:36:28.583Z,23.61
2022-09-28T12:38:32.732Z,23.56
2022-09-28T12:40:13.241Z,23.42
2022-09-28T12:42:00.019Z,23.33
2022-09-28T12:43:53.588Z,23.22
2022-09-28T12:46:09.774Z,23.18
2022-09-28T12:47:54.319Z,23.22
2022-09-28T12:50:36.640Z,23.21
2022-09-28T12:51:39.430Z,23.09
2022-09-28T12:53:14.139Z,23.00
2022-09-28T12:55:05.058Z,22.98
2022-09-28T12:56:41.585Z,22.91
2022-09-28T12:58:18.935Z,22.90
2022-09-28T13:00:01.394Z,22.89
2022-09-28T13:01:43.683Z,22.84
2022-09-28T13:03:35.383Z,22.88
2022-09-28T13:05:16.394Z,22.91
2022-09-28T13:07:00.263Z,22.98
2022-09-28T13:08:37.777Z,23.05
2022-09-28T13:10:16.921Z,23.12
2022-09-28T13:12:07.591Z,23.23
2022-09-28T13:13:51.947Z,23.34
2022-09-28T13:15:28.158Z,23.48
2022-09-28T13:17:00.745Z,23.63
2022-09-28T13:18:39.148Z,23.76
2022-09-28T13:20:13.442Z,23.96
2022-09-28T13:21:52.053Z,24.16
2022-09-28T13:23:31.399Z,24.22
2022-09-28T13:25:04.003Z,24.24
2022-09-28T13:26:40.759Z,24.36
2022-09-28T13:28:13.097Z,24.53
2022-09-28T13:29:45.692Z,24.58
2022-09-28T13:31:30.868Z,24.62
2022-09-28T13:33:04.449Z,24.59
2022-09-28T13:34:36.574Z,24.58
2022-09-28T13:36:29.432Z,24.60
2022-09-28T13:38:16.700Z,24.62
2022-09-28T13:39:52.587Z,24.65
2022-09-28T13:41:33.579Z,24.69
2022-09-28T13:43:09.803Z,24.65
2022-09-28T13:44:48.052Z,24.63
2022-09-28T13:46:29.211Z,24.59
2022-09-28T13:48:16.654Z,24.54
2022-09-28T13:49:51.652Z,24.36
2022-09-28T13:51:31.108Z,24.35
2022-09-28T13:53:06.613Z,24.29
2022-09-28T13:54:53.538Z,24.19
2022-09-28T13:56:43.722Z,24.17
2022-09-28T13:58:18.057Z,24.15
2022-09-28T13:59:52.274Z,24.04
2022-09-28T14:01:29.084Z,23.98
2022-09-28T14:03:06.581Z,23.95
2022-09-28T14:04:53.487Z,23.98
2022-09-28T14:06:26.224Z,24.03
2022-09-28T14:08:09.779Z,24.13
2022-09-28T14:09:48.675Z,24.21
2022-09-28T14:11:25.100Z,24.22
2022-09-28T14:12:56.816Z,24.19
2022-09-28T14:14:48.746Z,24.16
2022-09-28T14:16:23.838Z,24.13
2022-09-28T14:17:55.585Z,24.01
2022-09-28T14:19:32.098Z,23.94
2022-09-28T14:21:12.575Z,23.86
2022-09-28T14:22:44.585Z,23.77
2022-09-28T14:24:31.479Z,23.72
2022-09-28T14:26:07.028Z,23.73
2022-09-28T14:27:47.727Z,23.74
2022-09-28T14:29:39.553Z,23.71
2022-09-28T14:31:15.785Z,23.65
2022-09-28T14:32:58.160Z,23.57
2022-09-28T14:34:34.403Z,23.60
2022-09-28T14:36:06.759Z,23.65
2022-09-28T14:38:14.314Z,23.63
2022-09-28T14:40:04.780Z,23.71
2022-09-28T14:41:36.975Z,23.78
2022-09-28T14:43:20.884Z,23.80
2022-09-28T14:45:07.047Z,23.83
2022-09-28T14:46:48.396Z,23.80
2022-09-28T14:48:21.293Z,23.78
2022-09-28T14:49:59.883Z,23.81
2022-09-28T14:51:33.235Z,23.86
2022-09-28T14:53:05.711Z,23.87
2022-09-28T14:54:42.066Z,23.96
2022-09-28T14:56:13.994Z,23.96
2022-09-28T14:57:46.672Z,23.89
2022-09-28T14:59:24.969Z,23.88
2022-09-28T15:01:02.238Z,23.88
2022-09-28T15:02:33.938Z,23.83
2022-09-28T15:04:05.555Z,23.85
2022-09-28T15:05:44.365Z,23.77
2022-09-28T15:07:27.041Z,23.65
2022-09-28T15:08:58.754Z,23.59
2022-09-28T15:10:33.903Z,23.53
2022-09-28T15:12:07.751Z,23.51
2022-09-28T15:13:40.958Z,23.51
2022-09-28T15:15:19.586Z,23.44
2022-09-28T15:16:51.343Z,23.34
2022-09-28T15:18:44.092Z,23.31
2022-09-28T15:20:20.662Z,23.24
2022-09-28T15:21:52.151Z,23.19
2022-09-28T15:23:43.377Z,23.15
2022-09-28T15:25:16.928Z,23.17
2022-09-28T15:26:48.517Z,23.17
2022-09-28T15:28:22.750Z,23.17
2022-09-28T15:29:58.370Z,23.15
2022-09-28T15:31:30.624Z,23.14
2022-09-28T15:33:21.483Z,23.13
2022-09-28T15:34:54.686Z,23.11
2022-09-28T15:36:26.817Z,23.02
2022-09-28T15:43:30.324Z,22.96
2022-09-28T15:45:03.459Z,22.93
2022-09-28T15:46:36.784Z,22.92
2022-09-28T15:48:21.033Z,22.88
2022-09-28T15:50:02.159Z,22.84
2022-09-28T15:51:45.207Z,22.75
2022-09-28T15:53:17.624Z,22.66
2022-09-28T15:54:49.344Z,22.62
2022-09-28T15:56:20.860Z,22.56
2022-09-28T15:58:05.174Z,22.49
2022-09-28T15:59:39.673Z,22.48
2022-09-28T16:01:20.203Z,22.50
2022-09-28T16:03:05.592Z,22.51
2022-09-28T16:04:43.530Z,22.44
2022-09-28T16:06:15.160Z,22.41
2022-09-28T16:07:56.029Z,22.39
2022-09-28T16:09:33.158Z,22.33
2022-09-28T16:11:16.872Z,22.24
2022-09-28T16:12:56.560Z,22.17
2022-09-28T16:14:28.853Z,22.12
2022-09-28T16:16:00.796Z,22.07
2022-09-28T16:17:34.147Z,22.05
2022-09-28T16:19:05.690Z,21.98
2022-09-28T16:20:38.009Z,22.00
2022-09-28T16:22:10.051Z,21.96
2022-09-28T16:23:41.618Z,21.95
2022-09-28T16:25:16.698Z,21.96
2022-09-28T16:26:49.313Z,21.96
2022-09-28T16:28:30.391Z,21.94
2022-09-28T16:30:13.225Z,21.88
2022-09-28T16:31:52.690Z,21.84
2022-09-28T16:33:28.280Z,21.82
2022-09-28T16:35:18.816Z,21.83
2022-09-28T16:36:50.776Z,21.85
2022-09-28T16:38:22.281Z,21.84
2022-09-28T16:39:53.960Z,21.82
2022-09-28T16:41:26.295Z,21.82
2022-09-28T16:42:58.675Z,21.82
2022-09-28T16:44:31.974Z,21.86
2022-09-28T16:46:16.241Z,21.84
2022-09-28T16:47:51.972Z,21.77
2022-09-28T16:49:23.690Z,21.74
2022-09-28T16:50:55.569Z,21.73
2022-09-28T16:52:46.474Z,21.72
2022-09-28T16:54:40.810Z,21.75
2022-09-28T16:56:12.454Z,21.72
2022-09-28T16:57:44.651Z,21.70
2022-09-28T16:59:16.469Z,21.72
2022-09-28T17:00:48.142Z,21.70
2022-09-28T17:02:45.134Z,21.69
2022-09-28T17:04:12.445Z,21.66
2022-09-28T17:05:44.289Z,21.63
2022-09-28T17:07:15.964Z,21.66
2022-09-28T17:08:47.843Z,21.67
2022-09-28T17:10:29.552Z,21.62
2022-09-28T17:12:01.579Z,21.59
2022-09-28T17:13:37.553Z,21.55
2022-09-28T17:15:09.371Z,21.50
2022-09-28T17:18:33.329Z,21.45
2022-09-28T17:20:09.754Z,21.42
2022-09-28T17:21:41.319Z,21.42
2022-09-28T17:23:13.269Z,21.37
2022-09-28T17:24:46.285Z,21.41
2022-09-28T17:26:19.614Z,21.43
2022-09-28T17:27:51.303Z,21.40
2022-09-28T17:29:23.876Z,21.37
2022-09-28T17:30:55.823Z,21.33
2022-09-28T17:32:27.518Z,21.29
2022-09-28T17:33:59.122Z,21.24
2022-09-28T17:35:30.967Z,21.20
2022-09-28T17:37:02.616Z,21.09
2022-09-28T17:38:34.716Z,21.01
2022-09-28T17:40:17.308Z,20.99
2022-09-28T17:41:48.980Z,21.01
2022-09-28T17:43:22.463Z,21.05
2022-09-28T17:44:54.072Z,21.06
2022-09-28T17:46:27.173Z,21.06
2022-09-28T17:47:58.844Z,21.07
2022-09-28T17:49:30.409Z,21.07
2022-09-28T17:51:02.222Z,21.05
2022-09-28T17:52:33.955Z,20.99
2022-09-28T17:54:06.331Z,20.89
2022-09-28T17:55:38.110Z,20.82
2022-09-28T17:57:10.671Z,20.78
2022-09-28T17:58:42.265Z,20.74
2022-09-28T18:00:14.109Z,20.70
2022-09-28T18:01:45.892Z,20.67
2022-09-28T18:03:24.228Z,20.73
2022-09-28T18:04:55.807Z,20.71
2022-09-28T18:06:27.411Z,20.64
2022-09-28T18:07:59.489Z,20.64
2022-09-28T18:09:31.551Z,20.64
2022-09-28T18:11:03.184Z,20.62
2022-09-28T18:12:35.439Z,20.66
2022-09-28T18:14:11.108Z,20.69
2022-09-28T18:15:43.363Z,20.71
2022-09-28T18:17:15.358Z,20.72
2022-09-28T18:18:47.935Z,20.71
2022-09-28T18:20:19.876Z,20.71
2022-09-28T18:21:52.490Z,20.71
2022-09-28T18:23:24.344Z,20.73
2022-09-28T18:24:55.887Z,20.68
2022-09-28T18:26:27.719Z,20.65
2022-09-28T18:28:00.235Z,20.65
2022-09-28T18:29:33.447Z,20.67
2022-09-28T18:31:08.834Z,20.67
2022-09-28T18:32:40.455Z,20.61
2022-09-28T18:34:13.963Z,20.57
2022-09-28T18:35:52.406Z,20.59
2022-09-28T18:37:24.043Z,20.57
2022-09-28T18:38:57.485Z,20.48
2022-09-28T18:40:29.170Z,20.44
2022-09-28T18:42:02.461Z,20.43
2022-09-28T18:43:36.319Z,20.46
2022-09-28T18:45:11.330Z,20.45
2022-09-28T18:46:43.048Z,20.47
2022-09-28T18:48:14.807Z,20.46
2022-09-28T18:49:46.934Z,20.47
2022-09-28T18:51:19.716Z,20.49
2022-09-28T18:52:51.264Z,20.50
2022-09-28T18:54:23.260Z,20.47
2022-09-28T18:55:55.224Z,20.48
2022-09-28T18:57:27.185Z,20.47
2022-09-28T18:59:00.154Z,20.45
2022-09-28T19:00:31.666Z,20.44
2022-09-28T19:02:03.885Z,20.42
2022-09-28T19:03:35.807Z,20.38
2022-09-28T19:05:07.564Z,20.35
2022-09-28T19:06:42.648Z,20.32
2022-09-28T19:08:14.453Z,20.28
2022-09-28T19:09:46.037Z,20.26
2022-09-28T19:11:18.046Z,20.25
2022-09-28T19:12:52.281Z,20.21
2022-09-28T19:14:24.129Z,20.21
2022-09-28T19:15:56.432Z,20.20
2022-09-28T19:17:28.179Z,20.19
2022-09-28T19:19:01.118Z,20.14
2022-09-28T19:20:33.242Z,20.15
2022-09-28T19:22:05.070Z,20.11
2022-09-28T19:23:37.038Z,20.08
2022-09-28T19:25:11.055Z,20.07
2022-09-28T19:26:42.936Z,20.12
2022-09-28T19:28:14.546Z,20.13
2022-09-28T19:29:46.120Z,20.14
2022-09-28T19:34:16.426Z,20.07
2022-09-28T19:35:55.036Z,20.05
2022-09-28T19:37:27.119Z,20.06
2022-09-28T19:39:03.140Z,20.06
2022-09-28T19:40:36.747Z,20.09
2022-09-28T19:42:08.399Z,20.09
2022-09-28T19:43:43.845Z,20.08
2022-09-28T19:45:15.988Z,20.10
2022-09-28T19:46:47.969Z,20.11
2022-09-28T19:48:23.677Z,20.14
2022-09-28T19:49:55.209Z,20.11
2022-09-28T19:51:28.483Z,20.10
2022-09-28T19:53:02.344Z,20.04
2022-09-28T19:54:36.696Z,19.97
2022-09-28T19:56:08.700Z,19.92
2022-09-28T19:57:40.781Z,19.89
2022-09-28T19:59:12.476Z,19.87
2022-09-28T20:00:44.052Z,19.88
2022-09-28T20:02:15.927Z,19.89
2022-09-28T20:03:47.698Z,19.86
2022-09-28T20:05:19.258Z,19.81
2022-09-28T20:06:52.505Z,19.74
2022-09-28T20:08:24.434Z,19.71
2022-09-28T20:09:56.299Z,19.64
2022-09-28T20:11:30.157Z,19.58
2022-09-28T20:13:01.776Z,19.54
2022-09-28T20:14:38.034Z,19.54
2022-09-28T20:16:17.354Z,19.50
2022-09-28T20:17:49.308Z,19.52
2022-09-28T20:19:22.110Z,19.55
2022-09-28T20:21:00.676Z,19.57
2022-09-28T20:22:32.324Z,19.54
2022-09-28T20:24:05.365Z,19.52
2022-09-28T20:25:38.498Z,19.50
2022-09-28T20:27:10.900Z,19.44
2022-09-28T20:28:43.192Z,19.43
2022-09-28T20:30:15.536Z,19.38
2022-09-28T20:31:47.335Z,19.38
2022-09-28T20:33:28.642Z,19.35
2022-09-28T20:35:00.841Z,19.29
2022-09-28T20:36:32.639Z,19.22
2022-09-28T20:38:09.269Z,19.18
2022-09-28T20:39:44.823Z,19.18
2022-09-28T20:41:18.312Z,19.17
2022-09-28T20:42:49.853Z,19.18